createdAt,value
2023-05-09T00:01:15.042Z,20.40
2023-05-09T00:03:44.451Z,23.02
2023-05-09T00:06:13.393Z,21.48
2023-05-09T00:08:41.513Z,18.93
2023-05-09T00:11:11.785Z,17.30
2023-05-09T00:13:44.165Z,18.10
2023-05-09T00:16:12.024Z,18.83
2023-05-09T00:18:42.263Z,18.13
2023-05-09T00:21:12.072Z,19.30
2023-05-09T00:23:40.027Z,20.20
2023-05-09T00:26:07.996Z,22.85
2023-05-09T00:28:36.236Z,21.57
2023-05-09T00:31:04.955Z,20.52
2023-05-09T00:33:32.804Z,18.65
2023-05-09T00:36:00.753Z,17.55
2023-05-09T00:38:30.855Z,21.00
2023-05-09T00:40:58.805Z,23.00
2023-05-09T00:43:26.626Z,17.52
2023-05-09T00:45:54.723Z,21.25
2023-05-09T00:48:22.699Z,19.30
2023-05-09T00:50:52.956Z,14.40
2023-05-09T00:53:20.980Z,14.43
2023-05-09T00:55:53.420Z,18.63
2023-05-09T00:58:22.044Z,18.57
2023-05-09T01:00:49.906Z,17.52
2023-05-09T01:03:18.051Z,20.87
2023-05-09T01:05:59.428Z,18.38
2023-05-09T01:08:45.952Z,19.53
2023-05-09T01:11:23.871Z,21.27
2023-05-09T01:14:00.998Z,19.27
2023-05-09T01:16:36.893Z,21.43
2023-05-09T01:19:22.308Z,18.47
2023-05-09T01:21:51.267Z,21.33
2023-05-09T01:24:33.172Z,18.25
2023-05-09T01:27:22.303Z,19.67
2023-05-09T01:29:57.956Z,19.33
2023-05-09T01:32:28.137Z,22.57
2023-05-09T01:34:57.864Z,19.50
2023-05-09T01:37:30.662Z,22.88
2023-05-09T01:40:01.578Z,18.88
2023-05-09T01:42:40.489Z,23.30
2023-05-09T01:45:11.829Z,22.23
2023-05-09T01:47:43.525Z,20.67
2023-05-09T01:50:13.171Z,21.77
2023-05-09T01:52:43.785Z,23.73
2023-05-09T01:55:13.301Z,23.57
2023-05-09T01:57:41.656Z,23.10
2023-05-09T02:00:14.340Z,22.00
2023-05-09T02:02:43.215Z,19.37
2023-05-09T02:05:12.984Z,22.50
2023-05-09T02:07:42.751Z,22.30
2023-05-09T02:10:11.357Z,24.60
2023-05-09T02:12:39.412Z,24.37
2023-05-09T02:15:08.884Z,25.37
2023-05-09T02:17:43.272Z,24.98
2023-05-09T02:20:12.162Z,26.50
2023-05-09T02:22:41.500Z,25.87
2023-05-09T02:25:10.982Z,22.77
2023-05-09T02:27:41.346Z,18.83
2023-05-09T02:30:13.091Z,24.03
2023-05-09T02:32:44.286Z,18.47
2023-05-09T02:35:16.357Z,21.40
2023-05-09T02:37:45.531Z,16.97
2023-05-09T02:40:14.430Z,22.77
2023-05-09T02:42:42.344Z,21.53
2023-05-09T02:45:12.955Z,19.53
2023-05-09T02:47:42.349Z,21.77
2023-05-09T02:50:10.582Z,21.20
2023-05-09T02:52:39.659Z,20.05
2023-05-09T02:55:08.627Z,22.70
2023-05-09T02:57:39.810Z,17.60
2023-05-09T03:00:09.672Z,25.07
2023-05-09T03:02:37.977Z,23.80
2023-05-09T03:05:10.595Z,16.73
2023-05-09T03:07:38.545Z,21.50
2023-05-09T03:10:07.807Z,22.03
2023-05-09T03:12:35.663Z,22.73
2023-05-09T03:15:03.651Z,21.30
2023-05-09T03:17:31.559Z,17.13
2023-05-09T03:20:01.012Z,20.97
2023-05-09T03:22:31.616Z,22.27
2023-05-09T03:25:04.075Z,22.37
2023-05-09T03:27:31.889Z,22.63
2023-05-09T03:29:59.747Z,21.60
2023-05-09T03:32:29.825Z,21.90
2023-05-09T03:34:57.745Z,20.53
2023-05-09T03:37:27.345Z,22.30
2023-05-09T03:39:56.830Z,18.10
2023-05-09T03:42:24.674Z,19.67
2023-05-09T03:44:56.927Z,21.40
2023-05-09T03:47:24.924Z,18.30
2023-05-09T03:49:53.545Z,23.10
2023-05-09T03:52:23.518Z,24.40
2023-05-09T03:54:52.002Z,19.47
2023-05-09T03:57:23.653Z,21.20
2023-05-09T03:59:53.925Z,24.47
2023-05-09T04:02:24.649Z,20.10
2023-05-09T04:04:53.019Z,23.83
2023-05-09T04:07:23.156Z,19.07
2023-05-09T04:09:51.020Z,20.37
2023-05-09T04:12:18.838Z,25.23
2023-05-09T04:14:49.006Z,18.27
2023-05-09T04:17:18.001Z,19.30
2023-05-09T04:19:46.515Z,20.47
2023-05-09T04:22:14.380Z,26.87
2023-05-09T04:24:42.626Z,23.20
2023-05-09T04:27:10.539Z,28.13
2023-05-09T04:29:43.254Z,22.73
2023-05-09T04:32:12.682Z,27.37
2023-05-09T04:34:40.806Z,26.80
2023-05-09T04:37:16.037Z,25.27
2023-05-09T04:39:54.981Z,23.43
2023-05-09T04:42:36.096Z,27.13
2023-05-09T04:45:04.193Z,23.83
2023-05-09T04:47:33.362Z,22.53
2023-05-09T04:50:01.266Z,21.97
2023-05-09T04:52:29.156Z,19.53
2023-05-09T04:54:57.614Z,24.13
2023-05-09T04:57:28.971Z,23.77
2023-05-09T04:59:59.120Z,26.40
2023-05-09T05:02:26.921Z,22.87
2023-05-09T05:05:10.152Z,23.20
2023-05-09T05:07:40.693Z,21.10
2023-05-09T05:10:10.476Z,25.40
2023-05-09T05:12:40.169Z,23.07
2023-05-09T05:15:12.036Z,26.27
2023-05-09T05:17:40.613Z,25.67
2023-05-09T05:20:12.078Z,25.97
2023-05-09T05:22:45.074Z,22.93
2023-05-09T05:25:14.256Z,25.90
2023-05-09T05:27:43.820Z,25.70
2023-05-09T05:30:15.669Z,21.50
2023-05-09T05:32:44.690Z,20.77
2023-05-09T05:35:15.643Z,22.60
2023-05-09T05:37:44.276Z,19.50
2023-05-09T05:40:12.954Z,26.20
2023-05-09T05:42:46.614Z,25.23
2023-05-09T05:45:14.869Z,20.90
2023-05-09T05:47:47.317Z,25.00
2023-05-09T05:50:19.714Z,20.67
2023-05-09T05:52:48.360Z,26.42
2023-05-09T05:55:18.719Z,25.40
2023-05-09T05:57:47.685Z,21.07
2023-05-09T06:00:18.175Z,25.40
2023-05-09T06:02:50.651Z,26.37
2023-05-09T06:05:37.056Z,24.08
2023-05-09T06:08:08.120Z,24.67
2023-05-09T06:10:39.926Z,23.30
2023-05-09T06:13:08.144Z,22.23
2023-05-09T06:15:38.386Z,24.55
2023-05-09T06:18:07.066Z,23.63
2023-05-09T06:20:36.818Z,24.90
2023-05-09T06:23:04.604Z,22.80
2023-05-09T06:25:33.241Z,26.15
2023-05-09T06:28:01.300Z,28.15
2023-05-09T06:30:29.245Z,28.52
2023-05-09T06:32:58.212Z,27.17
2023-05-09T06:35:28.029Z,27.05
2023-05-09T06:37:57.277Z,25.13
2023-05-09T06:40:27.112Z,25.77
2023-05-09T06:42:55.478Z,23.92
2023-05-09T06:45:24.046Z,24.55
2023-05-09T06:47:51.961Z,23.20
2023-05-09T06:50:19.861Z,25.58
2023-05-09T06:52:48.323Z,25.38
2023-05-09T06:55:17.797Z,23.88
2023-05-09T06:57:45.720Z,26.08
2023-05-09T07:00:15.030Z,23.98
2023-05-09T07:02:43.154Z,24.35
2023-05-09T07:05:11.502Z,24.70
2023-05-09T07:07:39.408Z,26.88
2023-05-09T07:10:11.955Z,23.42
2023-05-09T07:12:41.957Z,22.30
2023-05-09T07:15:11.185Z,23.58
2023-05-09T07:17:39.266Z,20.77
2023-05-09T07:20:08.346Z,19.40
2023-05-09T07:22:37.446Z,19.95
2023-05-09T07:25:08.358Z,20.58
2023-05-09T07:27:36.817Z,21.50
2023-05-09T07:30:09.155Z,19.42
2023-05-09T07:32:37.056Z,21.00
2023-05-09T07:35:05.736Z,21.98
2023-05-09T07:37:33.621Z,25.33
2023-05-09T07:40:01.535Z,22.48
2023-05-09T07:42:30.276Z,20.23
2023-05-09T07:44:59.134Z,16.45
2023-05-09T07:47:28.533Z,23.27
2023-05-09T07:49:56.353Z,19.65
2023-05-09T07:52:24.095Z,16.42
2023-05-09T07:54:51.959Z,13.88
2023-05-09T07:57:19.731Z,18.83
2023-05-09T07:59:47.524Z,21.25
2023-05-09T08:02:15.326Z,21.10
2023-05-09T08:04:44.607Z,17.70
2023-05-09T08:07:12.507Z,18.52
2023-05-09T08:09:40.240Z,22.35
2023-05-09T08:12:10.177Z,22.50
2023-05-09T08:14:37.960Z,21.13
2023-05-09T08:17:05.874Z,15.30
2023-05-09T08:19:33.760Z,17.33
2023-05-09T08:22:03.110Z,14.93
2023-05-09T08:24:31.839Z,17.23
2023-05-09T08:26:59.919Z,16.25
2023-05-09T08:29:28.987Z,14.48
2023-05-09T08:31:56.905Z,14.70
2023-05-09T08:34:24.805Z,16.40
2023-05-09T08:36:55.363Z,13.40
2023-05-09T08:39:24.497Z,12.80
2023-05-09T08:41:52.937Z,14.43
2023-05-09T08:44:21.572Z,12.18
2023-05-09T08:46:53.203Z,15.70
2023-05-09T08:49:21.973Z,15.52
2023-05-09T08:51:53.087Z,15.13
2023-05-09T08:54:22.876Z,13.70
2023-05-09T08:56:52.471Z,15.75
2023-05-09T08:59:23.580Z,17.42
2023-05-09T09:01:52.336Z,14.98
2023-05-09T09:04:20.554Z,15.85
2023-05-09T09:06:48.918Z,14.00
2023-05-09T09:09:20.250Z,12.13
2023-05-09T09:11:49.044Z,14.32
2023-05-09T09:14:25.480Z,14.93
2023-05-09T09:16:55.676Z,15.70
2023-05-09T09:19:26.942Z,16.45
2023-05-09T09:21:56.084Z,13.88
2023-05-09T09:24:24.224Z,14.23
2023-05-09T09:26:54.525Z,14.85
2023-05-09T09:29:24.544Z,14.55
2023-05-09T09:31:54.840Z,14.35
2023-05-09T09:34:24.325Z,14.43
2023-05-09T09:36:52.236Z,11.23
2023-05-09T09:39:21.702Z,12.77
2023-05-09T09:41:49.832Z,11.13
2023-05-09T09:44:19.665Z,11.20
2023-05-09T09:46:50.484Z,11.73
2023-05-09T09:49:19.986Z,11.82
2023-05-09T09:51:51.945Z,10.52
2023-05-09T09:54:20.251Z,9.52
2023-05-09T09:56:49.411Z,11.63
2023-05-09T09:59:18.885Z,8.73
2023-05-09T10:01:59.317Z,9.75
2023-05-09T10:04:29.591Z,11.63
2023-05-09T10:06:59.287Z,9.88
2023-05-09T10:09:28.884Z,9.30
2023-05-09T10:11:57.982Z,10.07
2023-05-09T10:14:27.430Z,10.50
2023-05-09T10:16:58.427Z,7.75
2023-05-09T10:19:29.552Z,10.13
2023-05-09T10:21:58.828Z,13.90
2023-05-09T10:24:30.635Z,11.80
2023-05-09T10:27:05.353Z,11.73
2023-05-09T10:29:36.998Z,12.18
2023-05-09T10:32:15.919Z,13.93
2023-05-09T10:34:48.684Z,12.30
2023-05-09T10:37:17.736Z,11.07
2023-05-09T10:39:45.786Z,9.25
2023-05-09T10:42:14.176Z,10.53
2023-05-09T10:44:42.653Z,8.30
2023-05-09T10:47:15.579Z,13.38
2023-05-09T10:49:44.360Z,13.20
2023-05-09T10:52:19.437Z,12.93
2023-05-09T10:55:02.337Z,11.68
2023-05-09T10:57:32.529Z,12.53
2023-05-09T11:00:01.357Z,11.57
2023-05-09T11:02:32.760Z,12.70
2023-05-09T11:05:18.551Z,12.55
2023-05-09T11:07:46.652Z,10.23
2023-05-09T11:10:18.964Z,12.60
2023-05-09T11:12:58.500Z,11.82
2023-05-09T11:15:27.858Z,11.90
2023-05-09T11:18:08.849Z,11.10
2023-05-09T11:20:37.524Z,11.45
2023-05-09T11:23:06.917Z,9.68
2023-05-09T11:25:37.177Z,10.97
2023-05-09T11:28:05.439Z,12.95
2023-05-09T11:30:39.442Z,10.98
2023-05-09T11:33:23.254Z,9.25
2023-05-09T11:36:20.036Z,12.27
2023-05-09T11:38:48.801Z,11.60
2023-05-09T11:41:17.367Z,10.00
2023-05-09T11:43:45.558Z,9.35
2023-05-09T11:46:13.853Z,9.80
2023-05-09T11:48:43.178Z,8.13
2023-05-09T11:51:18.235Z,10.00
2023-05-09T11:53:47.164Z,10.32
2023-05-09T11:56:15.556Z,11.07
2023-05-09T11:58:44.105Z,9.50
2023-05-09T12:01:15.209Z,9.77
2023-05-09T12:03:46.027Z,9.93
2023-05-09T12:06:18.346Z,8.70
2023-05-09T12:08:47.074Z,6.32
2023-05-09T12:11:15.781Z,6.07
2023-05-09T12:13:48.416Z,6.68
2023-05-09T12:16:17.250Z,5.97
2023-05-09T12:18:47.733Z,6.60
2023-05-09T12:21:15.714Z,6.43
2023-05-09T12:23:48.948Z,4.47
2023-05-09T12:26:18.659Z,5.80
2023-05-09T12:28:46.809Z,5.85
2023-05-09T12:31:14.962Z,5.72
2023-05-09T12:33:42.954Z,4.63
2023-05-09T12:36:15.932Z,4.93
2023-05-09T12:38:53.606Z,4.15
2023-05-09T12:41:35.051Z,5.55
2023-05-09T12:44:05.488Z,4.70
2023-05-09T12:46:34.564Z,4.72
2023-05-09T12:49:03.525Z,5.95
2023-05-09T12:51:32.622Z,7.22
2023-05-09T12:54:04.388Z,5.93
2023-05-09T12:56:35.539Z,6.70
2023-05-09T12:59:03.391Z,4.93
2023-05-09T13:01:31.614Z,4.30
2023-05-09T13:04:04.034Z,4.82
2023-05-09T13:06:36.104Z,4.88
2023-05-09T13:09:07.814Z,6.53
2023-05-09T13:11:37.731Z,4.68
2023-05-09T13:14:05.707Z,4.35
2023-05-09T13:16:34.048Z,4.32
2023-05-09T13:19:02.448Z,5.32
2023-05-09T13:21:30.164Z,4.20
2023-05-09T13:23:59.289Z,3.28
2023-05-09T13:26:27.572Z,2.83
2023-05-09T13:28:55.345Z,3.55
2023-05-09T13:31:23.512Z,2.53
2023-05-09T13:33:52.105Z,3.13
2023-05-09T13:36:20.790Z,4.13
2023-05-09T13:38:48.990Z,2.78
2023-05-09T13:41:23.524Z,2.50
2023-05-09T13:43:51.608Z,2.60
2023-05-09T13:46:19.484Z,2.47
2023-05-09T13:48:47.849Z,2.60
2023-05-09T13:51:18.076Z,2.40
2023-05-09T13:53:45.881Z,2.85
2023-05-09T13:56:13.866Z,2.83
2023-05-09T13:58:43.001Z,3.17
2023-05-09T14:01:11.348Z,2.60
2023-05-09T14:03:39.453Z,3.50
2023-05-09T14:06:09.243Z,2.78
2023-05-09T14:08:37.162Z,2.30
2023-05-09T14:11:05.299Z,2.60
2023-05-09T14:13:33.104Z,2.05
2023-05-09T14:16:02.329Z,2.97
2023-05-09T14:18:30.213Z,2.33
2023-05-09T14:20:58.095Z,2.30
2023-05-09T14:23:25.922Z,2.05
2023-05-09T14:25:53.964Z,2.00
2023-05-09T14:28:21.883Z,2.75
2023-05-09T14:30:49.744Z,2.08
2023-05-09T14:33:23.363Z,2.67
2023-05-09T14:35:51.167Z,3.15
2023-05-09T14:38:19.154Z,2.10
2023-05-09T14:40:47.076Z,2.45
2023-05-09T14:43:15.732Z,4.78
2023-05-09T14:45:43.551Z,2.35
2023-05-09T14:48:12.249Z,2.63
2023-05-09T14:50:42.519Z,3.45
2023-05-09T14:53:11.255Z,3.53
2023-05-09T14:55:39.165Z,4.47
2023-05-09T14:58:07.756Z,3.17
2023-05-09T15:00:37.988Z,3.20
2023-05-09T15:03:06.010Z,4.60
2023-05-09T15:05:33.829Z,3.55
2023-05-09T15:08:03.056Z,2.03
2023-05-09T15:10:31.691Z,2.65
2023-05-09T15:13:05.917Z,1.73
2023-05-09T15:15:33.985Z,1.90
2023-05-09T15:18:04.406Z,1.67
2023-05-09T15:20:32.361Z,1.45
2023-05-09T15:23:00.363Z,1.35
2023-05-09T15:25:29.470Z,1.48
2023-05-09T15:27:57.397Z,1.17
2023-05-09T15:30:27.585Z,1.50
2023-05-09T15:32:55.558Z,1.52
2023-05-09T15:35:23.532Z,1.30
2023-05-09T15:37:51.460Z,1.75
2023-05-09T15:40:21.706Z,1.05
2023-05-09T15:42:51.100Z,2.17
2023-05-09T15:45:20.373Z,1.67
2023-05-09T15:47:50.969Z,1.85
2023-05-09T15:50:21.228Z,2.45
2023-05-09T15:52:49.754Z,2.40
2023-05-09T15:55:18.175Z,1.70
2023-05-09T15:57:48.181Z,2.17
2023-05-09T16:00:18.278Z,5.20
2023-05-09T16:02:46.267Z,2.03
2023-05-09T16:05:14.282Z,1.63
2023-05-09T16:07:44.942Z,1.30
2023-05-09T16:10:13.483Z,1.40
2023-05-09T16:12:41.533Z,1.30
2023-05-09T16:15:10.781Z,1.52
2023-05-09T16:17:40.060Z,1.20
2023-05-09T16:20:09.269Z,1.75
2023-05-09T16:22:37.586Z,1.13
2023-05-09T16:25:07.435Z,2.05
2023-05-09T16:27:35.915Z,1.98
2023-05-09T16:30:03.971Z,1.88
2023-05-09T16:32:31.966Z,3.47
2023-05-09T16:35:04.182Z,2.20
2023-05-09T16:37:33.503Z,4.72
2023-05-09T16:40:04.411Z,2.75
2023-05-09T16:42:32.516Z,2.72
2023-05-09T16:45:00.326Z,5.53
2023-05-09T16:47:28.727Z,6.00
2023-05-09T16:49:56.514Z,4.00
2023-05-09T16:52:25.751Z,3.83
2023-05-09T16:54:54.688Z,6.15
2023-05-09T16:57:22.762Z,3.83
2023-05-09T16:59:53.333Z,4.57
2023-05-09T17:02:21.275Z,6.35
2023-05-09T17:04:49.488Z,5.43
2023-05-09T17:07:17.417Z,4.40
2023-05-09T17:09:48.213Z,6.95
2023-05-09T17:12:18.081Z,4.25
2023-05-09T17:14:46.325Z,4.63
2023-05-09T17:17:14.759Z,4.25
2023-05-09T17:19:42.738Z,4.45
2023-05-09T17:22:10.961Z,6.05
2023-05-09T17:24:38.866Z,4.53
2023-05-09T17:27:08.139Z,4.22
2023-05-09T17:29:36.367Z,5.65
2023-05-09T17:32:04.354Z,4.78
2023-05-09T17:34:32.435Z,3.55
2023-05-09T17:37:01.949Z,4.25
2023-05-09T17:39:32.565Z,4.65
2023-05-09T17:42:00.924Z,5.15
2023-05-09T17:44:30.184Z,3.05
2023-05-09T17:46:58.864Z,3.50
2023-05-09T17:49:27.743Z,5.50
2023-05-09T17:51:56.348Z,3.40
2023-05-09T17:54:24.736Z,2.42
2023-05-09T17:56:58.930Z,3.38
2023-05-09T17:59:27.033Z,2.15
2023-05-09T18:01:57.839Z,1.85
2023-05-09T18:04:31.900Z,2.33
2023-05-09T18:07:04.140Z,1.70
2023-05-09T18:09:40.532Z,2.53
2023-05-09T18:12:13.496Z,2.17
2023-05-09T18:14:47.724Z,1.60
2023-05-09T18:17:17.258Z,2.35
2023-05-09T18:19:45.777Z,2.35
2023-05-09T18:22:15.704Z,2.60
2023-05-09T18:24:44.916Z,1.73
2023-05-09T18:27:15.425Z,2.10
2023-05-09T18:29:45.251Z,2.00
2023-05-09T18:32:14.070Z,1.83
2023-05-09T18:34:48.405Z,3.03
2023-05-09T18:37:17.046Z,2.15
2023-05-09T18:39:48.929Z,2.53
2023-05-09T18:42:17.014Z,1.40
2023-05-09T18:44:46.069Z,2.80
2023-05-09T18:47:15.319Z,2.13
2023-05-09T18:49:43.470Z,2.95
2023-05-09T18:52:12.962Z,2.40
2023-05-09T18:54:41.180Z,2.40
2023-05-09T18:57:09.962Z,2.00
2023-05-09T18:59:40.683Z,2.30
2023-05-09T19:02:09.056Z,5.40
2023-05-09T19:04:36.959Z,1.95
2023-05-09T19:07:04.811Z,2.15
2023-05-09T19:09:34.035Z,1.55
2023-05-09T19:12:05.035Z,1.60
2023-05-09T19:14:33.143Z,2.35
2023-05-09T19:17:01.022Z,3.10
2023-05-09T19:19:28.909Z,2.53
2023-05-09T19:21:57.047Z,2.55
2023-05-09T19:24:24.866Z,1.90
2023-05-09T19:26:54.171Z,3.22
2023-05-09T19:29:22.050Z,2.28
2023-05-09T19:31:50.047Z,3.38
2023-05-09T19:34:17.926Z,2.75
2023-05-09T19:36:45.691Z,1.60
2023-05-09T19:39:13.679Z,2.70
2023-05-09T19:41:42.002Z,4.38
2023-05-09T19:44:11.203Z,2.10
2023-05-09T19:46:42.928Z,2.45
2023-05-09T19:49:11.103Z,1.85
2023-05-09T19:51:39.347Z,2.80
2023-05-09T19:54:07.256Z,2.10
2023-05-09T19:56:35.195Z,1.90
2023-05-09T19:59:03.065Z,2.92
2023-05-09T20:01:32.251Z,2.60
2023-05-09T20:04:00.337Z,1.98
2023-05-09T20:06:30.617Z,1.77
2023-05-09T20:08:58.459Z,1.30
2023-05-09T20:11:27.474Z,1.52
2023-05-09T20:13:57.658Z,2.38
2023-05-09T20:16:25.504Z,3.53
2023-05-09T20:18:55.086Z,1.65
2023-05-09T20:21:22.900Z,1.77
2023-05-09T20:23:50.840Z,1.60
2023-05-09T20:26:18.560Z,1.98
2023-05-09T20:28:46.441Z,1.85
2023-05-09T20:31:16.557Z,2.65
2023-05-09T20:33:44.341Z,1.90
2023-05-09T20:36:13.539Z,2.15
2023-05-09T20:38:41.349Z,3.55
2023-05-09T20:41:09.280Z,3.67
2023-05-09T20:43:37.416Z,2.92
2023-05-09T20:46:05.395Z,3.72
2023-05-09T20:48:33.237Z,2.90
2023-05-09T20:51:01.056Z,3.03
2023-05-09T20:53:32.292Z,3.08
2023-05-09T20:56:00.286Z,2.10
2023-05-09T20:58:31.161Z,4.70
2023-05-09T21:00:59.181Z,2.15
2023-05-09T21:03:27.302Z,1.98
2023-05-09T21:05:55.592Z,1.50
2023-05-09T21:08:24.111Z,1.40
2023-05-09T21:10:54.313Z,1.98
2023-05-09T21:13:22.391Z,2.70
2023-05-09T21:15:52.529Z,2.03
2023-05-09T21:18:20.959Z,1.85
2023-05-09T21:20:48.814Z,1.88
2023-05-09T21:23:18.415Z,3.17
2023-05-09T21:25:46.251Z,1.50
2023-05-09T21:28:15.621Z,2.38
2023-05-09T21:30:43.391Z,2.88
2023-05-09T21:33:11.308Z,1.50
2023-05-09T21:35:39.164Z,3.20
2023-05-09T21:38:06.972Z,1.50
2023-05-09T21:40:34.825Z,3.33
2023-05-09T21:43:03.487Z,1.52
2023-05-09T21:45:32.662Z,1.75
2023-05-09T21:48:00.610Z,1.40
2023-05-09T21:50:28.579Z,2.60
2023-05-09T21:52:57.107Z,2.28
2023-05-09T21:55:25.052Z,2.55
2023-05-09T21:57:52.869Z,1.50
2023-05-09T22:00:21.011Z,1.45
2023-05-09T22:02:50.556Z,2.15
2023-05-09T22:05:43.389Z,1.38
2023-05-09T22:08:11.281Z,2.28
2023-05-09T22:10:39.088Z,1.40
2023-05-09T22:13:06.840Z,1.67
2023-05-09T22:15:34.704Z,2.20
2023-05-09T22:18:03.966Z,1.65
2023-05-09T22:20:31.778Z,2.33
2023-05-09T22:22:59.551Z,1.88
2023-05-09T22:25:27.502Z,4.07
2023-05-09T22:27:55.341Z,2.35
2023-05-09T22:30:24.106Z,2.67
2023-05-09T22:32:52.167Z,1.40
2023-05-09T22:35:21.361Z,2.75
2023-05-09T22:37:49.168Z,1.60
2023-05-09T22:40:17.488Z,1.83
2023-05-09T22:42:45.473Z,1.42
2023-05-09T22:45:15.396Z,1.63
2023-05-09T22:47:43.474Z,1.15
2023-05-09T22:50:11.832Z,1.38
2023-05-09T22:52:41.482Z,1.65
2023-05-09T22:55:09.958Z,2.38
2023-05-09T22:57:37.705Z,2.17
2023-05-09T23:00:06.747Z,1.50
2023-05-09T23:02:34.739Z,1.52
2023-05-09T23:05:02.710Z,1.52
2023-05-09T23:07:30.909Z,1.88
2023-05-09T23:10:00.223Z,2.45
2023-05-09T23:12:28.008Z,1.23
2023-05-09T23:14:55.857Z,0.95
2023-05-09T23:17:23.722Z,1.80
2023-05-09T23:19:51.525Z,1.55
2023-05-09T23:22:19.440Z,1.15
2023-05-09T23:24:47.514Z,1.77
2023-05-09T23:27:16.802Z,1.63
2023-05-09T23:29:44.611Z,2.45
2023-05-09T23:32:12.771Z,1.55
2023-05-09T23:34:42.645Z,3.10
2023-05-09T23:37:10.337Z,1.42
2023-05-09T23:39:38.092Z,1.27
2023-05-09T23:42:05.999Z,2.53
2023-05-09T23:44:35.347Z,1.90
2023-05-09T23:47:03.638Z,2.03
2023-05-09T23:49:31.482Z,1.58
2023-05-09T23:51:59.279Z,1.20
2023-05-09T23:54:27.103Z,1.33
2023-05-09T23:56:56.343Z,1.90
2023-05-09T23:59:24.150Z,1.63
